sensor_id;sensor_type;location;lat;lon;timestamp;P1;durP1;ratioP1;P2;durP2;ratioP2
26822;SDS011;14852;51.910;8.878;2022-09-17T00:00:22;1.95;;;0.93;;
26822;SDS011;14852;51.910;8.878;2022-09-17T00:02:48;4.55;;;2.20;;
26822;SDS011;14852;51.910;8.878;2022-09-17T00:05:20;3.75;;;1.35;;
26822;SDS011;14852;51.910;8.878;2022-09-17T00:07:47;2.25;;;1.73;;
26822;SDS011;14852;51.910;8.878;2022-09-17T00:10:15;5.18;;;1.88;;
26822;SDS011;14852;51.910;8.878;2022-09-17T00:12:43;4.30;;;1.42;;
26822;SDS011;14852;51.910;8.878;2022-09-17T00:15:09;3.00;;;1.38;;
26822;SDS011;14852;51.910;8.878;2022-09-17T00:17:36;5.88;;;1.65;;
26822;SDS011;14852;51.910;8.878;2022-09-17T00:20:02;4.72;;;1.85;;
26822;SDS011;14852;51.910;8.878;2022-09-17T00:22:29;3.28;;;1.45;;
26822;SDS011;14852;51.910;8.878;2022-09-17T00:24:55;3.92;;;1.75;;
26822;SDS011;14852;51.910;8.878;2022-09-17T00:27:21;4.47;;;1.42;;
26822;SDS011;14852;51.910;8.878;2022-09-17T00:29:47;5.70;;;1.60;;
26822;SDS011;14852;51.910;8.878;2022-09-17T00:32:12;4.25;;;1.58;;
26822;SDS011;14852;51.910;8.878;2022-09-17T00:34:38;6.93;;;2.38;;
26822;SDS011;14852;51.910;8.878;2022-09-17T00:37:06;4.85;;;1.55;;
26822;SDS011;14852;51.910;8.878;2022-09-17T00:39:31;5.32;;;1.85;;
26822;SDS011;14852;51.910;8.878;2022-09-17T00:41:57;3.65;;;1.60;;
26822;SDS011;14852;51.910;8.878;2022-09-17T00:44:40;4.53;;;2.33;;
26822;SDS011;14852;51.910;8.878;2022-09-17T00:47:24;2.33;;;1.10;;
26822;SDS011;14852;51.910;8.878;2022-09-17T00:50:22;3.08;;;1.40;;
26822;SDS011;14852;51.910;8.878;2022-09-17T00:52:56;5.60;;;1.90;;
26822;SDS011;14852;51.910;8.878;2022-09-17T00:56:07;4.82;;;1.88;;
26822;SDS011;14852;51.910;8.878;2022-09-17T01:01:10;3.83;;;1.38;;
26822;SDS011;14852;51.910;8.878;2022-09-17T01:03:36;3.22;;;2.03;;
26822;SDS011;14852;51.910;8.878;2022-09-17T01:06:10;3.72;;;1.75;;
26822;SDS011;14852;51.910;8.878;2022-09-17T01:09:14;3.22;;;1.40;;
26822;SDS011;14852;51.910;8.878;2022-09-17T01:15:14;4.30;;;1.85;;
26822;SDS011;14852;51.910;8.878;2022-09-17T01:24:16;7.07;;;1.95;;
26822;SDS011;14852;51.910;8.878;2022-09-17T01:27:10;6.40;;;2.22;;
26822;SDS011;14852;51.910;8.878;2022-09-17T01:33:02;4.00;;;1.63;;
26822;SDS011;14852;51.910;8.878;2022-09-17T01:39:51;6.10;;;2.55;;
26822;SDS011;14852;51.910;8.878;2022-09-17T01:42:36;5.15;;;2.53;;
26822;SDS011;14852;51.910;8.878;2022-09-17T01:45:07;5.30;;;2.22;;
26822;SDS011;14852;51.910;8.878;2022-09-17T01:50:30;6.85;;;1.92;;
26822;SDS011;14852;51.910;8.878;2022-09-17T01:53:02;3.17;;;1.27;;
26822;SDS011;14852;51.910;8.878;2022-09-17T01:55:30;5.07;;;1.80;;
26822;SDS011;14852;51.910;8.878;2022-09-17T02:00:46;3.53;;;1.63;;
26822;SDS011;14852;51.910;8.878;2022-09-17T02:03:20;5.57;;;2.35;;
26822;SDS011;14852;51.910;8.878;2022-09-17T02:06:05;5.25;;;2.08;;
26822;SDS011;14852;51.910;8.878;2022-09-17T02:08:44;6.03;;;2.22;;
26822;SDS011;14852;51.910;8.878;2022-09-17T02:14:23;4.75;;;2.42;;
26822;SDS011;14852;51.910;8.878;2022-09-17T02:16:54;3.92;;;1.80;;
26822;SDS011;14852;51.910;8.878;2022-09-17T02:19:29;7.20;;;2.95;;
26822;SDS011;14852;51.910;8.878;2022-09-17T02:24:43;6.10;;;2.65;;
26822;SDS011;14852;51.910;8.878;2022-09-17T02:27:36;7.13;;;2.25;;
26822;SDS011;14852;51.910;8.878;2022-09-17T02:30:35;6.90;;;2.45;;
26822;SDS011;14852;51.910;8.878;2022-09-17T02:33:01;5.60;;;2.95;;
26822;SDS011;14852;51.910;8.878;2022-09-17T02:35:32;7.68;;;2.10;;
26822;SDS011;14852;51.910;8.878;2022-09-17T02:37:58;5.88;;;2.65;;
26822;SDS011;14852;51.910;8.878;2022-09-17T02:40:25;5.40;;;2.45;;
26822;SDS011;14852;51.910;8.878;2022-09-17T02:49:23;10.32;;;2.72;;
26822;SDS011;14852;51.910;8.878;2022-09-17T02:52:28;7.97;;;2.35;;
26822;SDS011;14852;51.910;8.878;2022-09-17T02:55:14;7.57;;;2.88;;
26822;SDS011;14852;51.910;8.878;2022-09-17T02:58:13;6.18;;;2.70;;
26822;SDS011;14852;51.910;8.878;2022-09-17T03:01:17;5.10;;;2.45;;
26822;SDS011;14852;51.910;8.878;2022-09-17T03:03:59;10.52;;;3.13;;
26822;SDS011;14852;51.910;8.878;2022-09-17T03:06:28;8.27;;;2.20;;
26822;SDS011;14852;51.910;8.878;2022-09-17T03:08:55;10.05;;;3.22;;
26822;SDS011;14852;51.910;8.878;2022-09-17T03:11:21;7.28;;;3.50;;
26822;SDS011;14852;51.910;8.878;2022-09-17T03:13:47;5.93;;;2.42;;
26822;SDS011;14852;51.910;8.878;2022-09-17T03:16:13;5.95;;;2.95;;
26822;SDS011;14852;51.910;8.878;2022-09-17T03:18:39;7.18;;;2.58;;
26822;SDS011;14852;51.910;8.878;2022-09-17T03:21:05;9.90;;;3.05;;
26822;SDS011;14852;51.910;8.878;2022-09-17T03:23:30;8.63;;;3.83;;
26822;SDS011;14852;51.910;8.878;2022-09-17T03:25:56;9.68;;;2.55;;
26822;SDS011;14852;51.910;8.878;2022-09-17T03:28:23;9.05;;;2.50;;
26822;SDS011;14852;51.910;8.878;2022-09-17T03:30:50;6.20;;;1.98;;
26822;SDS011;14852;51.910;8.878;2022-09-17T03:33:16;7.03;;;2.78;;
26822;SDS011;14852;51.910;8.878;2022-09-17T03:35:42;9.80;;;2.63;;
26822;SDS011;14852;51.910;8.878;2022-09-17T03:38:09;10.35;;;3.67;;
26822;SDS011;14852;51.910;8.878;2022-09-17T03:40:35;8.18;;;2.60;;
26822;SDS011;14852;51.910;8.878;2022-09-17T03:43:01;14.43;;;3.25;;
26822;SDS011;14852;51.910;8.878;2022-09-17T03:45:27;10.05;;;3.40;;
26822;SDS011;14852;51.910;8.878;2022-09-17T03:47:53;7.45;;;3.03;;
26822;SDS011;14852;51.910;8.878;2022-09-17T03:50:20;8.20;;;2.88;;
26822;SDS011;14852;51.910;8.878;2022-09-17T03:52:45;12.27;;;3.00;;
26822;SDS011;14852;51.910;8.878;2022-09-17T03:55:11;7.97;;;3.08;;
26822;SDS011;14852;51.910;8.878;2022-09-17T03:57:37;7.60;;;2.25;;
26822;SDS011;14852;51.910;8.878;2022-09-17T04:00:03;7.05;;;2.45;;
26822;SDS011;14852;51.910;8.878;2022-09-17T04:02:36;6.65;;;2.78;;
26822;SDS011;14852;51.910;8.878;2022-09-17T04:05:02;5.93;;;2.47;;
26822;SDS011;14852;51.910;8.878;2022-09-17T04:07:29;10.63;;;2.63;;
26822;SDS011;14852;51.910;8.878;2022-09-17T04:09:55;5.72;;;2.25;;
26822;SDS011;14852;51.910;8.878;2022-09-17T04:12:20;6.90;;;2.90;;
26822;SDS011;14852;51.910;8.878;2022-09-17T04:14:46;7.20;;;2.40;;
26822;SDS011;14852;51.910;8.878;2022-09-17T04:17:12;11.90;;;2.90;;
26822;SDS011;14852;51.910;8.878;2022-09-17T04:19:42;9.05;;;2.72;;
26822;SDS011;14852;51.910;8.878;2022-09-17T04:22:08;9.25;;;2.55;;
26822;SDS011;14852;51.910;8.878;2022-09-17T04:24:34;7.93;;;2.70;;
26822;SDS011;14852;51.910;8.878;2022-09-17T04:27:00;9.30;;;4.18;;
26822;SDS011;14852;51.910;8.878;2022-09-17T04:29:25;7.43;;;3.17;;
26822;SDS011;14852;51.910;8.878;2022-09-17T04:31:52;10.93;;;4.18;;
26822;SDS011;14852;51.910;8.878;2022-09-17T04:34:17;6.03;;;2.45;;
26822;SDS011;14852;51.910;8.878;2022-09-17T04:36:43;11.07;;;2.83;;
26822;SDS011;14852;51.910;8.878;2022-09-17T04:39:09;7.43;;;2.53;;
26822;SDS011;14852;51.910;8.878;2022-09-17T04:41:35;7.32;;;2.53;;
26822;SDS011;14852;51.910;8.878;2022-09-17T04:44:01;7.80;;;3.22;;
26822;SDS011;14852;51.910;8.878;2022-09-17T04:46:26;6.38;;;2.47;;
26822;SDS011;14852;51.910;8.878;2022-09-17T04:48:52;9.20;;;2.97;;
26822;SDS011;14852;51.910;8.878;2022-09-17T04:51:18;5.88;;;2.78;;
26822;SDS011;14852;51.910;8.878;2022-09-17T04:53:44;8.63;;;2.90;;
26822;SDS011;14852;51.910;8.878;2022-09-17T04:56:09;4.63;;;2.38;;
26822;SDS011;14852;51.910;8.878;2022-09-17T04:58:35;9.55;;;2.67;;
26822;SDS011;14852;51.910;8.878;2022-09-17T05:01:01;10.02;;;3.15;;
26822;SDS011;14852;51.910;8.878;2022-09-17T05:03:27;5.65;;;2.28;;
26822;SDS011;14852;51.910;8.878;2022-09-17T05:05:52;6.68;;;3.10;;
26822;SDS011;14852;51.910;8.878;2022-09-17T05:08:18;10.45;;;3.55;;
26822;SDS011;14852;51.910;8.878;2022-09-17T05:10:46;9.23;;;3.05;;
26822;SDS011;14852;51.910;8.878;2022-09-17T05:13:15;7.30;;;2.63;;
26822;SDS011;14852;51.910;8.878;2022-09-17T05:15:41;10.65;;;3.20;;
26822;SDS011;14852;51.910;8.878;2022-09-17T05:18:07;7.85;;;3.00;;
26822;SDS011;14852;51.910;8.878;2022-09-17T05:20:33;6.43;;;3.13;;
26822;SDS011;14852;51.910;8.878;2022-09-17T05:22:59;6.15;;;3.00;;
26822;SDS011;14852;51.910;8.878;2022-09-17T05:25:25;7.38;;;2.90;;
26822;SDS011;14852;51.910;8.878;2022-09-17T05:27:51;9.75;;;3.03;;
26822;SDS011;14852;51.910;8.878;2022-09-17T05:30:18;7.47;;;2.40;;
26822;SDS011;14852;51.910;8.878;2022-09-17T05:32:44;7.13;;;2.95;;
26822;SDS011;14852;51.910;8.878;2022-09-17T05:35:11;9.45;;;2.72;;
26822;SDS011;14852;51.910;8.878;2022-09-17T05:37:36;8.02;;;2.95;;
26822;SDS011;14852;51.910;8.878;2022-09-17T05:40:03;11.25;;;2.67;;
26822;SDS011;14852;51.910;8.878;2022-09-17T05:42:31;6.65;;;2.50;;
26822;SDS011;14852;51.910;8.878;2022-09-17T05:44:57;10.25;;;4.22;;
26822;SDS011;14852;51.910;8.878;2022-09-17T05:47:23;8.82;;;3.10;;
26822;SDS011;14852;51.910;8.878;2022-09-17T05:49:49;7.07;;;2.35;;
26822;SDS011;14852;51.910;8.878;2022-09-17T05:52:14;8.27;;;2.30;;
26822;SDS011;14852;51.910;8.878;2022-09-17T05:54:40;7.65;;;2.92;;
26822;SDS011;14852;51.910;8.878;2022-09-17T05:57:06;10.43;;;2.50;;
26822;SDS011;14852;51.910;8.878;2022-09-17T05:59:32;10.15;;;2.95;;
26822;SDS011;14852;51.910;8.878;2022-09-17T06:01:58;8.43;;;2.58;;
26822;SDS011;14852;51.910;8.878;2022-09-17T06:04:23;10.85;;;3.00;;
26822;SDS011;14852;51.910;8.878;2022-09-17T06:06:49;8.40;;;2.88;;
26822;SDS011;14852;51.910;8.878;2022-09-17T06:09:15;11.18;;;2.85;;
26822;SDS011;14852;51.910;8.878;2022-09-17T06:11:41;13.15;;;3.03;;
26822;SDS011;14852;51.910;8.878;2022-09-17T06:14:07;7.85;;;2.30;;
26822;SDS011;14852;51.910;8.878;2022-09-17T06:16:33;7.85;;;3.08;;
26822;SDS011;14852;51.910;8.878;2022-09-17T06:18:59;9.98;;;3.10;;
26822;SDS011;14852;51.910;8.878;2022-09-17T06:21:26;7.57;;;2.03;;
26822;SDS011;14852;51.910;8.878;2022-09-17T06:23:51;6.43;;;2.33;;
26822;SDS011;14852;51.910;8.878;2022-09-17T06:26:17;6.60;;;2.25;;
26822;SDS011;14852;51.910;8.878;2022-09-17T06:28:43;10.23;;;3.28;;
26822;SDS011;14852;51.910;8.878;2022-09-17T06:31:10;8.65;;;3.28;;
26822;SDS011;14852;51.910;8.878;2022-09-17T06:33:37;9.73;;;2.85;;
26822;SDS011;14852;51.910;8.878;2022-09-17T06:36:08;9.98;;;2.83;;
26822;SDS011;14852;51.910;8.878;2022-09-17T06:38:36;9.02;;;3.50;;
26822;SDS011;14852;51.910;8.878;2022-09-17T06:41:02;5.20;;;2.03;;
26822;SDS011;14852;51.910;8.878;2022-09-17T06:43:29;8.18;;;2.97;;
26822;SDS011;14852;51.910;8.878;2022-09-17T06:45:56;4.25;;;2.75;;
26822;SDS011;14852;51.910;8.878;2022-09-17T06:48:28;9.32;;;3.00;;
26822;SDS011;14852;51.910;8.878;2022-09-17T06:50:55;8.43;;;3.03;;
26822;SDS011;14852;51.910;8.878;2022-09-17T06:53:26;8.13;;;2.85;;
26822;SDS011;14852;51.910;8.878;2022-09-17T06:55:55;6.28;;;2.38;;
26822;SDS011;14852;51.910;8.878;2022-09-17T06:58:25;10.18;;;3.28;;
26822;SDS011;14852;51.910;8.878;2022-09-17T07:00:56;3.83;;;1.95;;
26822;SDS011;14852;51.910;8.878;2022-09-17T07:05:53;11.60;;;4.10;;
26822;SDS011;14852;51.910;8.878;2022-09-17T07:08:18;8.68;;;2.42;;
26822;SDS011;14852;51.910;8.878;2022-09-17T07:10:46;6.22;;;2.20;;
26822;SDS011;14852;51.910;8.878;2022-09-17T07:13:12;5.18;;;2.58;;
26822;SDS011;14852;51.910;8.878;2022-09-17T07:15:38;6.68;;;2.53;;
26822;SDS011;14852;51.910;8.878;2022-09-17T07:18:08;12.18;;;2.63;;
26822;SDS011;14852;51.910;8.878;2022-09-17T07:20:35;6.30;;;3.00;;
26822;SDS011;14852;51.910;8.878;2022-09-17T07:23:02;6.93;;;2.60;;
26822;SDS011;14852;51.910;8.878;2022-09-17T07:25:27;4.90;;;1.90;;
26822;SDS011;14852;51.910;8.878;2022-09-17T07:27:53;7.25;;;2.50;;
26822;SDS011;14852;51.910;8.878;2022-09-17T07:30:19;4.75;;;1.95;;
26822;SDS011;14852;51.910;8.878;2022-09-17T07:32:45;7.97;;;2.47;;
26822;SDS011;14852;51.910;8.878;2022-09-17T07:35:11;9.52;;;2.78;;
26822;SDS011;14852;51.910;8.878;2022-09-17T07:37:37;7.10;;;2.78;;
26822;SDS011;14852;51.910;8.878;2022-09-17T07:40:03;9.20;;;3.28;;
26822;SDS011;14852;51.910;8.878;2022-09-17T07:42:31;6.68;;;3.08;;
26822;SDS011;14852;51.910;8.878;2022-09-17T07:44:57;7.25;;;2.30;;
26822;SDS011;14852;51.910;8.878;2022-09-17T07:47:23;8.50;;;2.28;;
26822;SDS011;14852;51.910;8.878;2022-09-17T07:49:48;8.00;;;3.35;;
26822;SDS011;14852;51.910;8.878;2022-09-17T07:52:14;4.80;;;2.28;;
26822;SDS011;14852;51.910;8.878;2022-09-17T07:54:40;6.18;;;2.58;;
26822;SDS011;14852;51.910;8.878;2022-09-17T07:57:06;7.15;;;2.90;;
26822;SDS011;14852;51.910;8.878;2022-09-17T07:59:32;4.75;;;2.22;;
26822;SDS011;14852;51.910;8.878;2022-09-17T08:01:58;7.03;;;3.03;;
26822;SDS011;14852;51.910;8.878;2022-09-17T08:04:23;9.52;;;2.50;;
26822;SDS011;14852;51.910;8.878;2022-09-17T08:06:49;6.97;;;1.95;;
26822;SDS011;14852;51.910;8.878;2022-09-17T08:09:15;9.50;;;3.22;;
26822;SDS011;14852;51.910;8.878;2022-09-17T08:11:42;7.63;;;2.40;;
26822;SDS011;14852;51.910;8.878;2022-09-17T08:14:12;7.22;;;2.25;;
26822;SDS011;14852;51.910;8.878;2022-09-17T08:16:39;5.90;;;2.20;;
26822;SDS011;14852;51.910;8.878;2022-09-17T08:19:06;7.47;;;2.53;;
26822;SDS011;14852;51.910;8.878;2022-09-17T08:21:35;5.15;;;2.50;;
26822;SDS011;14852;51.910;8.878;2022-09-17T08:24:01;6.88;;;3.13;;
26822;SDS011;14852;51.910;8.878;2022-09-17T08:26:27;4.15;;;2.63;;
26822;SDS011;14852;51.910;8.878;2022-09-17T08:28:53;5.72;;;2.53;;
26822;SDS011;14852;51.910;8.878;2022-09-17T08:31:21;4.60;;;2.03;;
26822;SDS011;14852;51.910;8.878;2022-09-17T08:33:52;7.53;;;3.33;;
26822;SDS011;14852;51.910;8.878;2022-09-17T08:36:19;8.38;;;2.47;;
26822;SDS011;14852;51.910;8.878;2022-09-17T08:38:46;5.28;;;2.33;;
26822;SDS011;14852;51.910;8.878;2022-09-17T08:44:38;5.65;;;2.35;;
26822;SDS011;14852;51.910;8.878;2022-09-17T08:47:12;4.97;;;2.40;;
26822;SDS011;14852;51.910;8.878;2022-09-17T08:49:46;7.37;;;2.37;;
26822;SDS011;14852;51.910;8.878;2022-09-17T09:01:06;6.47;;;2.45;;
26822;SDS011;14852;51.910;8.878;2022-09-17T09:04:01;9.48;;;3.45;;
26822;SDS011;14852;51.910;8.878;2022-09-17T09:07:20;3.92;;;2.05;;
26822;SDS011;14852;51.910;8.878;2022-09-17T09:09:54;6.38;;;2.28;;
26822;SDS011;14852;51.910;8.878;2022-09-17T09:12:37;4.75;;;2.10;;
26822;SDS011;14852;51.910;8.878;2022-09-17T09:17:49;5.53;;;2.00;;
26822;SDS011;14852;51.910;8.878;2022-09-17T09:20:18;6.20;;;2.60;;
26822;SDS011;14852;51.910;8.878;2022-09-17T09:22:56;5.28;;;2.03;;
26822;SDS011;14852;51.910;8.878;2022-09-17T09:25:29;4.78;;;2.80;;
26822;SDS011;14852;51.910;8.878;2022-09-17T09:33:49;7.28;;;2.60;;
26822;SDS011;14852;51.910;8.878;2022-09-17T09:36:16;6.35;;;2.35;;
26822;SDS011;14852;51.910;8.878;2022-09-17T09:38:49;4.95;;;1.77;;
26822;SDS011;14852;51.910;8.878;2022-09-17T09:41:35;5.00;;;1.90;;
26822;SDS011;14852;51.910;8.878;2022-09-17T09:44:18;4.30;;;2.03;;
26822;SDS011;14852;51.910;8.878;2022-09-17T09:47:00;7.10;;;1.70;;
26822;SDS011;14852;51.910;8.878;2022-09-17T09:49:51;5.57;;;1.80;;
26822;SDS011;14852;51.910;8.878;2022-09-17T09:59:12;4.45;;;1.70;;
26822;SDS011;14852;51.910;8.878;2022-09-17T10:01:39;5.32;;;1.73;;
26822;SDS011;14852;51.910;8.878;2022-09-17T10:04:14;3.47;;;1.50;;
26822;SDS011;14852;51.910;8.878;2022-09-17T10:09:18;5.03;;;2.10;;
26822;SDS011;14852;51.910;8.878;2022-09-17T10:14:35;2.17;;;1.13;;
26822;SDS011;14852;51.910;8.878;2022-09-17T10:17:09;3.28;;;1.52;;
26822;SDS011;14852;51.910;8.878;2022-09-17T10:22:33;2.65;;;1.50;;
26822;SDS011;14852;51.910;8.878;2022-09-17T10:25:01;4.18;;;1.67;;
26822;SDS011;14852;51.910;8.878;2022-09-17T10:27:30;3.70;;;1.70;;
26822;SDS011;14852;51.910;8.878;2022-09-17T10:32:34;3.60;;;1.70;;
26822;SDS011;14852;51.910;8.878;2022-09-17T10:35:42;3.88;;;1.60;;
26822;SDS011;14852;51.910;8.878;2022-09-17T10:37:52;3.38;;;1.92;;
26822;SDS011;14852;51.910;8.878;2022-09-17T10:42:48;3.10;;;1.50;;
26822;SDS011;14852;51.910;8.878;2022-09-17T10:45:35;4.93;;;2.17;;
26822;SDS011;14852;51.910;8.878;2022-09-17T10:48:10;5.85;;;1.95;;
26822;SDS011;14852;51.910;8.878;2022-09-17T10:50:48;2.97;;;1.60;;
26822;SDS011;14852;51.910;8.878;2022-09-17T10:53:17;2.40;;;1.20;;
26822;SDS011;14852;51.910;8.878;2022-09-17T10:55:55;3.28;;;1.55;;
26822;SDS011;14852;51.910;8.878;2022-09-17T11:02:00;4.00;;;2.08;;
26822;SDS011;14852;51.910;8.878;2022-09-17T11:10:11;4.07;;;1.55;;
26822;SDS011;14852;51.910;8.878;2022-09-17T11:12:52;3.70;;;1.27;;
26822;SDS011;14852;51.910;8.878;2022-09-17T11:18:52;4.10;;;1.92;;
26822;SDS011;14852;51.910;8.878;2022-09-17T11:21:34;7.18;;;2.00;;
26822;SDS011;14852;51.910;8.878;2022-09-17T11:30:15;6.30;;;1.85;;
26822;SDS011;14852;51.910;8.878;2022-09-17T11:35:44;3.43;;;1.60;;
26822;SDS011;14852;51.910;8.878;2022-09-17T11:38:23;2.20;;;1.20;;
26822;SDS011;14852;51.910;8.878;2022-09-17T11:43:34;2.40;;;1.35;;
26822;SDS011;14852;51.910;8.878;2022-09-17T11:51:23;3.63;;;1.75;;
26822;SDS011;14852;51.910;8.878;2022-09-17T11:57:09;2.42;;;1.08;;
26822;SDS011;14852;51.910;8.878;2022-09-17T11:59:49;2.35;;;1.00;;
26822;SDS011;14852;51.910;8.878;2022-09-17T12:02:43;2.42;;;1.00;;
26822;SDS011;14852;51.910;8.878;2022-09-17T12:11:05;4.22;;;1.30;;
26822;SDS011;14852;51.910;8.878;2022-09-17T12:13:44;3.88;;;1.33;;
26822;SDS011;14852;51.910;8.878;2022-09-17T12:16:25;3.80;;;1.80;;
26822;SDS011;14852;51.910;8.878;2022-09-17T12:39:01;3.38;;;1.20;;
26822;SDS011;14852;51.910;8.878;2022-09-17T12:42:00;1.83;;;0.90;;
26822;SDS011;14852;51.910;8.878;2022-09-17T12:48:00;3.33;;;1.58;;
26822;SDS011;14852;51.910;8.878;2022-09-17T12:51:01;4.20;;;1.40;;
26822;SDS011;14852;51.910;8.878;2022-09-17T12:53:50;3.05;;;1.35;;
26822;SDS011;14852;51.910;8.878;2022-09-17T12:56:47;3.38;;;0.82;;
26822;SDS011;14852;51.910;8.878;2022-09-17T12:59:39;3.25;;;1.23;;
26822;SDS011;14852;51.910;8.878;2022-09-17T13:02:30;2.95;;;0.98;;
26822;SDS011;14852;51.910;8.878;2022-09-17T13:08:07;2.65;;;1.17;;
26822;SDS011;14852;51.910;8.878;2022-09-17T13:11:31;1.93;;;0.90;;
26822;SDS011;14852;51.910;8.878;2022-09-17T13:20:22;2.30;;;1.20;;
26822;SDS011;14852;51.910;8.878;2022-09-17T13:22:50;4.25;;;1.40;;
26822;SDS011;14852;51.910;8.878;2022-09-17T13:25:19;3.63;;;1.65;;
26822;SDS011;14852;51.910;8.878;2022-09-17T13:27:47;3.65;;;1.40;;
26822;SDS011;14852;51.910;8.878;2022-09-17T13:30:15;2.05;;;0.98;;
26822;SDS011;14852;51.910;8.878;2022-09-17T13:32:43;3.55;;;1.20;;
26822;SDS011;14852;51.910;8.878;2022-09-17T13:37:37;3.22;;;1.10;;
26822;SDS011;14852;51.910;8.878;2022-09-17T13:40:19;2.40;;;1.20;;
26822;SDS011;14852;51.910;8.878;2022-09-17T13:45:30;2.45;;;1.45;;
26822;SDS011;14852;51.910;8.878;2022-09-17T13:48:04;2.35;;;1.48;;
26822;SDS011;14852;51.910;8.878;2022-09-17T13:50:36;2.35;;;0.80;;
26822;SDS011;14852;51.910;8.878;2022-09-17T14:00:55;4.45;;;1.45;;
26822;SDS011;14852;51.910;8.878;2022-09-17T14:05:58;5.53;;;1.65;;
26822;SDS011;14852;51.910;8.878;2022-09-17T14:24:39;1.05;;;0.70;;
26822;SDS011;14852;51.910;8.878;2022-09-17T14:27:31;1.38;;;0.68;;
26822;SDS011;14852;51.910;8.878;2022-09-17T14:30:23;2.15;;;0.80;;
26822;SDS011;14852;51.910;8.878;2022-09-17T14:33:01;2.83;;;0.98;;
26822;SDS011;14852;51.910;8.878;2022-09-17T14:38:20;3.42;;;1.08;;
26822;SDS011;14852;51.910;8.878;2022-09-17T14:43:45;1.90;;;1.00;;
26822;SDS011;14852;51.910;8.878;2022-09-17T14:46:29;5.07;;;1.38;;
26822;SDS011;14852;51.910;8.878;2022-09-17T14:51:55;2.58;;;1.48;;
26822;SDS011;14852;51.910;8.878;2022-09-17T14:54:23;2.35;;;1.10;;
26822;SDS011;14852;51.910;8.878;2022-09-17T15:05:10;2.92;;;1.10;;
26822;SDS011;14852;51.910;8.878;2022-09-17T15:10:37;4.95;;;1.55;;
26822;SDS011;14852;51.910;8.878;2022-09-17T15:13:27;4.88;;;1.95;;
26822;SDS011;14852;51.910;8.878;2022-09-17T15:16:05;4.07;;;1.77;;
26822;SDS011;14852;51.910;8.878;2022-09-17T15:18:59;5.10;;;1.50;;
26822;SDS011;14852;51.910;8.878;2022-09-17T15:21:28;6.97;;;1.70;;
26822;SDS011;14852;51.910;8.878;2022-09-17T15:26:40;4.55;;;1.58;;
26822;SDS011;14852;51.910;8.878;2022-09-17T15:29:10;5.80;;;1.98;;
26822;SDS011;14852;51.910;8.878;2022-09-17T15:31:37;2.95;;;1.33;;
26822;SDS011;14852;51.910;8.878;2022-09-17T15:34:03;7.10;;;2.47;;
26822;SDS011;14852;51.910;8.878;2022-09-17T15:36:29;3.08;;;1.80;;
26822;SDS011;14852;51.910;8.878;2022-09-17T15:38:56;3.67;;;1.70;;
26822;SDS011;14852;51.910;8.878;2022-09-17T15:41:32;4.95;;;2.35;;
26822;SDS011;14852;51.910;8.878;2022-09-17T15:44:06;3.80;;;1.35;;
26822;SDS011;14852;51.910;8.878;2022-09-17T15:46:42;3.85;;;1.48;;
26822;SDS011;14852;51.910;8.878;2022-09-17T15:52:20;5.85;;;1.55;;
26822;SDS011;14852;51.910;8.878;2022-09-17T15:55:27;4.57;;;1.83;;
26822;SDS011;14852;51.910;8.878;2022-09-17T15:58:00;4.28;;;1.50;;
26822;SDS011;14852;51.910;8.878;2022-09-17T16:00:30;3.88;;;1.75;;
26822;SDS011;14852;51.910;8.878;2022-09-17T16:02:56;5.97;;;2.08;;
26822;SDS011;14852;51.910;8.878;2022-09-17T16:05:43;4.72;;;1.58;;
26822;SDS011;14852;51.910;8.878;2022-09-17T16:08:19;4.50;;;1.80;;
26822;SDS011;14852;51.910;8.878;2022-09-17T16:10:46;7.93;;;1.88;;
26822;SDS011;14852;51.910;8.878;2022-09-17T16:13:14;3.30;;;1.55;;
26822;SDS011;14852;51.910;8.878;2022-09-17T16:15:40;3.00;;;1.52;;
26822;SDS011;14852;51.910;8.878;2022-09-17T16:18:09;3.67;;;1.73;;
26822;SDS011;14852;51.910;8.878;2022-09-17T16:20:36;4.30;;;1.80;;
26822;SDS011;14852;51.910;8.878;2022-09-17T16:23:02;6.97;;;1.73;;
26822;SDS011;14852;51.910;8.878;2022-09-17T16:25:28;3.60;;;1.67;;
26822;SDS011;14852;51.910;8.878;2022-09-17T16:28:01;3.28;;;1.67;;
26822;SDS011;14852;51.910;8.878;2022-09-17T16:30:32;5.47;;;1.65;;
26822;SDS011;14852;51.910;8.878;2022-09-17T16:32:58;2.58;;;1.42;;
26822;SDS011;14852;51.910;8.878;2022-09-17T16:35:27;2.42;;;1.40;;
26822;SDS011;14852;51.910;8.878;2022-09-17T16:37:54;4.85;;;1.58;;
26822;SDS011;14852;51.910;8.878;2022-09-17T16:40:21;6.70;;;1.33;;
26822;SDS011;14852;51.910;8.878;2022-09-17T16:42:51;4.57;;;1.48;;
26822;SDS011;14852;51.910;8.878;2022-09-17T16:45:17;3.92;;;1.48;;
26822;SDS011;14852;51.910;8.878;2022-09-17T16:47:44;3.92;;;1.65;;
26822;SDS011;14852;51.910;8.878;2022-09-17T16:50:11;3.22;;;1.42;;
26822;SDS011;14852;51.910;8.878;2022-09-17T16:52:39;3.47;;;1.67;;
26822;SDS011;14852;51.910;8.878;2022-09-17T16:55:05;3.83;;;1.77;;
26822;SDS011;14852;51.910;8.878;2022-09-17T16:57:32;4.35;;;1.63;;
26822;SDS011;14852;51.910;8.878;2022-09-17T16:59:58;3.50;;;1.60;;
26822;SDS011;14852;51.910;8.878;2022-09-17T17:02:25;3.45;;;1.80;;
26822;SDS011;14852;51.910;8.878;2022-09-17T17:04:50;4.75;;;1.67;;
26822;SDS011;14852;51.910;8.878;2022-09-17T17:07:17;4.95;;;1.60;;
26822;SDS011;14852;51.910;8.878;2022-09-17T17:09:43;3.83;;;1.75;;
26822;SDS011;14852;51.910;8.878;2022-09-17T17:12:08;2.70;;;1.45;;
26822;SDS011;14852;51.910;8.878;2022-09-17T17:14:35;3.20;;;1.17;;
26822;SDS011;14852;51.910;8.878;2022-09-17T17:17:01;4.72;;;1.35;;
26822;SDS011;14852;51.910;8.878;2022-09-17T17:19:27;3.05;;;1.00;;
26822;SDS011;14852;51.910;8.878;2022-09-17T17:21:54;3.75;;;1.17;;
26822;SDS011;14852;51.910;8.878;2022-09-17T17:24:20;6.50;;;1.80;;
26822;SDS011;14852;51.910;8.878;2022-09-17T17:26:46;5.18;;;1.65;;
26822;SDS011;14852;51.910;8.878;2022-09-17T17:29:12;3.35;;;1.45;;
26822;SDS011;14852;51.910;8.878;2022-09-17T17:31:39;1.67;;;0.95;;
26822;SDS011;14852;51.910;8.878;2022-09-17T17:34:05;4.97;;;1.90;;
26822;SDS011;14852;51.910;8.878;2022-09-17T17:36:31;4.28;;;1.52;;
26822;SDS011;14852;51.910;8.878;2022-09-17T17:38:58;4.60;;;1.88;;
26822;SDS011;14852;51.910;8.878;2022-09-17T17:41:24;5.45;;;2.03;;
26822;SDS011;14852;51.910;8.878;2022-09-17T17:43:52;4.78;;;1.88;;
26822;SDS011;14852;51.910;8.878;2022-09-17T17:46:19;5.45;;;1.80;;
26822;SDS011;14852;51.910;8.878;2022-09-17T17:48:47;4.38;;;1.92;;
26822;SDS011;14852;51.910;8.878;2022-09-17T17:51:13;5.00;;;2.17;;
26822;SDS011;14852;51.910;8.878;2022-09-17T17:53:41;3.67;;;1.85;;
26822;SDS011;14852;51.910;8.878;2022-09-17T17:56:07;4.03;;;2.10;;
26822;SDS011;14852;51.910;8.878;2022-09-17T17:58:34;4.70;;;1.90;;
26822;SDS011;14852;51.910;8.878;2022-09-17T18:01:08;6.18;;;1.80;;
26822;SDS011;14852;51.910;8.878;2022-09-17T18:03:45;3.80;;;2.00;;
26822;SDS011;14852;51.910;8.878;2022-09-17T18:06:12;5.95;;;2.10;;
26822;SDS011;14852;51.910;8.878;2022-09-17T18:08:38;4.97;;;2.40;;
26822;SDS011;14852;51.910;8.878;2022-09-17T18:11:07;6.38;;;2.10;;
26822;SDS011;14852;51.910;8.878;2022-09-17T18:13:34;9.80;;;2.85;;
26822;SDS011;14852;51.910;8.878;2022-09-17T18:16:02;3.67;;;1.70;;
26822;SDS011;14852;51.910;8.878;2022-09-17T18:18:31;5.15;;;1.90;;
26822;SDS011;14852;51.910;8.878;2022-09-17T18:21:03;3.65;;;1.50;;
26822;SDS011;14852;51.910;8.878;2022-09-17T18:23:32;5.32;;;2.03;;
26822;SDS011;14852;51.910;8.878;2022-09-17T18:26:00;6.68;;;1.92;;
26822;SDS011;14852;51.910;8.878;2022-09-17T18:28:28;5.47;;;2.42;;
26822;SDS011;14852;51.910;8.878;2022-09-17T18:30:54;3.80;;;1.77;;
26822;SDS011;14852;51.910;8.878;2022-09-17T18:33:22;4.00;;;2.03;;
26822;SDS011;14852;51.910;8.878;2022-09-17T18:35:51;4.32;;;1.83;;
26822;SDS011;14852;51.910;8.878;2022-09-17T18:38:21;5.60;;;1.83;;
26822;SDS011;14852;51.910;8.878;2022-09-17T18:40:48;6.78;;;2.28;;